createdAt,value
2023-03-11T00:01:51.627Z,8.98
2023-03-11T00:04:37.274Z,6.40
2023-03-11T00:07:23.100Z,6.28
2023-03-11T00:10:10.780Z,11.40
2023-03-11T00:15:43.072Z,1.65
2023-03-11T00:18:31.373Z,2.22
2023-03-11T00:21:18.053Z,5.50
2023-03-11T00:24:04.199Z,5.10
2023-03-11T00:26:49.951Z,4.03
2023-03-11T00:29:35.699Z,3.58
2023-03-11T00:32:21.275Z,4.55
2023-03-11T00:35:08.236Z,3.85
2023-03-11T00:37:58.995Z,4.43
2023-03-11T00:40:46.221Z,4.15
2023-03-11T00:43:31.733Z,3.83
2023-03-11T00:46:17.281Z,3.53
2023-03-11T00:49:03.058Z,2.47
2023-03-11T00:51:48.730Z,2.85
2023-03-11T00:54:34.262Z,3.47
2023-03-11T00:57:19.714Z,3.53
2023-03-11T01:00:06.825Z,2.90
2023-03-11T01:02:54.692Z,2.20
2023-03-11T01:05:42.016Z,1.58
2023-03-11T01:08:27.484Z,2.70
2023-03-11T01:11:13.461Z,1.50
2023-03-11T01:13:59.090Z,1.67
2023-03-11T01:16:44.366Z,2.03
2023-03-11T01:19:29.613Z,1.92
2023-03-11T01:22:15.302Z,1.98
2023-03-11T01:25:00.928Z,2.17
2023-03-11T01:27:46.546Z,1.10
2023-03-11T01:30:31.804Z,2.03
2023-03-11T01:33:18.724Z,1.42
2023-03-11T01:36:04.513Z,1.52
2023-03-11T01:38:50.176Z,1.00
2023-03-11T01:41:35.677Z,1.00
2023-03-11T01:44:22.314Z,1.95
2023-03-11T01:47:10.973Z,1.58
2023-03-11T01:49:56.967Z,1.20
2023-03-11T01:52:44.788Z,1.77
2023-03-11T01:55:31.678Z,0.90
2023-03-11T01:58:22.649Z,0.85
2023-03-11T02:01:08.282Z,0.82
2023-03-11T02:03:54.713Z,0.77
2023-03-11T02:06:40.658Z,1.17
2023-03-11T02:09:28.232Z,1.02
2023-03-11T02:12:16.875Z,1.00
2023-03-11T02:15:03.750Z,1.40
2023-03-11T02:18:14.969Z,1.00
2023-03-11T02:24:08.468Z,0.80
2023-03-11T02:27:08.642Z,1.60
2023-03-11T02:33:06.612Z,0.50
2023-03-11T02:35:52.634Z,1.20
2023-03-11T02:38:38.686Z,1.15
2023-03-11T02:41:26.899Z,1.30
2023-03-11T02:44:14.690Z,0.90
2023-03-11T02:47:01.016Z,0.95
2023-03-11T02:49:50.993Z,1.70
2023-03-11T02:52:37.268Z,0.47
2023-03-11T02:55:23.492Z,0.57
2023-03-11T02:58:09.230Z,1.05
2023-03-11T03:00:54.786Z,0.68
2023-03-11T03:03:40.307Z,0.80
2023-03-11T03:06:26.504Z,0.75
2023-03-11T03:09:12.149Z,1.08
2023-03-11T03:11:57.664Z,0.70
2023-03-11T03:14:43.572Z,0.70
2023-03-11T03:17:29.729Z,1.00
2023-03-11T03:20:15.791Z,1.30
2023-03-11T03:23:06.778Z,0.80
2023-03-11T03:25:52.594Z,0.65
2023-03-11T03:28:38.464Z,0.95
2023-03-11T03:31:25.841Z,0.70
2023-03-11T03:34:11.561Z,0.90
2023-03-11T03:36:57.132Z,1.52
2023-03-11T03:39:42.590Z,0.65
2023-03-11T03:42:30.344Z,0.95
2023-03-11T03:45:15.852Z,0.52
2023-03-11T03:48:01.902Z,0.68
2023-03-11T03:50:50.786Z,0.80
2023-03-11T03:53:37.338Z,1.00
2023-03-11T03:56:23.263Z,0.80
2023-03-11T03:59:08.724Z,0.70
2023-03-11T04:02:01.070Z,0.65
2023-03-11T04:04:49.257Z,0.60
2023-03-11T04:07:35.990Z,1.38
2023-03-11T04:10:23.400Z,2.40
2023-03-11T04:13:10.139Z,1.83
2023-03-11T04:15:56.913Z,4.88
2023-03-11T04:18:43.098Z,2.55
2023-03-11T04:21:28.773Z,2.85
2023-03-11T04:24:15.170Z,2.88
2023-03-11T04:27:01.580Z,1.92
2023-03-11T04:29:50.608Z,1.25
2023-03-11T04:32:36.535Z,1.40
2023-03-11T04:35:23.356Z,0.70
2023-03-11T04:38:09.241Z,0.98
2023-03-11T04:40:54.608Z,0.93
2023-03-11T04:43:40.092Z,0.70
2023-03-11T04:46:26.316Z,0.32
2023-03-11T04:49:12.033Z,0.43
2023-03-11T04:51:58.176Z,0.65
2023-03-11T04:54:45.570Z,0.77
2023-03-11T04:57:31.935Z,0.30
2023-03-11T05:00:22.436Z,0.45
2023-03-11T05:03:09.755Z,0.38
2023-03-11T05:06:00.261Z,0.40
2023-03-11T05:08:46.088Z,0.35
2023-03-11T05:11:31.944Z,0.25
2023-03-11T05:14:18.024Z,0.30
2023-03-11T05:17:03.628Z,0.50
2023-03-11T05:19:49.605Z,0.00
2023-03-11T05:22:40.665Z,0.13
2023-03-11T05:25:26.701Z,0.22
2023-03-11T05:28:12.832Z,0.10
2023-03-11T05:31:08.803Z,0.22
2023-03-11T05:33:55.400Z,0.20
2023-03-11T05:36:41.420Z,0.15
2023-03-11T05:39:27.301Z,0.20
2023-03-11T05:42:13.244Z,0.30
2023-03-11T05:44:59.078Z,0.20
2023-03-11T05:47:46.081Z,0.30
2023-03-11T05:50:34.331Z,0.25
2023-03-11T05:53:20.823Z,0.20
2023-03-11T05:56:07.026Z,0.28
2023-03-11T05:58:53.369Z,0.40
2023-03-11T06:01:39.519Z,0.13
2023-03-11T06:04:25.625Z,0.22
2023-03-11T06:07:13.150Z,0.40
2023-03-11T06:09:59.148Z,0.45
2023-03-11T06:12:44.647Z,0.52
2023-03-11T06:15:46.124Z,0.47
2023-03-11T06:18:32.091Z,0.50
2023-03-11T06:21:22.383Z,0.40
2023-03-11T06:24:08.256Z,0.55
2023-03-11T06:26:53.898Z,0.20
2023-03-11T06:29:42.118Z,0.68
2023-03-11T06:32:29.816Z,0.60
2023-03-11T06:35:15.448Z,0.77
2023-03-11T06:38:00.997Z,0.40
2023-03-11T06:40:47.544Z,0.70
2023-03-11T06:43:34.794Z,0.63
2023-03-11T06:49:09.978Z,0.52
2023-03-11T06:51:57.938Z,0.55
2023-03-11T06:54:45.490Z,0.90
2023-03-11T06:57:35.649Z,0.47
2023-03-11T07:00:24.754Z,0.80
2023-03-11T07:03:15.222Z,0.77
2023-03-11T07:06:01.216Z,1.00
2023-03-11T07:08:48.594Z,0.63
2023-03-11T07:11:34.299Z,0.70
2023-03-11T07:14:27.404Z,0.50
2023-03-11T07:17:15.537Z,0.85
2023-03-11T07:20:07.507Z,0.55
2023-03-11T07:22:53.293Z,0.88
2023-03-11T07:25:38.809Z,1.65
2023-03-11T07:28:25.084Z,2.05
2023-03-11T07:31:14.442Z,0.82
2023-03-11T07:34:02.647Z,0.98
2023-03-11T07:39:35.320Z,1.10
2023-03-11T07:42:20.868Z,0.60
2023-03-11T07:45:06.929Z,0.47
2023-03-11T07:47:52.549Z,0.85
2023-03-11T07:50:38.180Z,1.00
2023-03-11T07:53:24.625Z,1.02
2023-03-11T07:56:35.369Z,0.60
2023-03-11T07:59:21.579Z,0.75
2023-03-11T08:02:07.479Z,0.85
2023-03-11T08:04:53.450Z,0.77
2023-03-11T08:07:40.647Z,0.68
2023-03-11T08:10:29.167Z,0.88
2023-03-11T08:13:19.949Z,2.15
2023-03-11T08:16:07.464Z,1.00
2023-03-11T08:18:53.739Z,1.58
2023-03-11T08:21:40.493Z,0.98
2023-03-11T08:24:26.033Z,3.05
2023-03-11T08:27:13.119Z,3.60
2023-03-11T08:30:01.800Z,1.60
2023-03-11T08:32:50.110Z,1.75
2023-03-11T08:35:36.588Z,3.22
2023-03-11T08:38:22.961Z,3.00
2023-03-11T08:41:09.303Z,1.90
2023-03-11T08:43:55.169Z,3.05
2023-03-11T08:46:41.021Z,1.25
2023-03-11T08:49:28.586Z,1.45
2023-03-11T08:52:14.289Z,2.85
2023-03-11T08:55:01.341Z,1.15
2023-03-11T08:57:47.178Z,1.75
2023-03-11T09:00:32.677Z,1.42
2023-03-11T09:03:18.503Z,2.40
2023-03-11T09:06:07.000Z,1.35
2023-03-11T09:08:52.949Z,2.22
2023-03-11T09:11:39.785Z,1.73
2023-03-11T09:14:25.766Z,1.67
2023-03-11T09:17:12.400Z,2.40
2023-03-11T09:19:58.739Z,2.03
2023-03-11T09:22:44.699Z,1.17
2023-03-11T09:25:30.251Z,1.73
2023-03-11T09:28:16.282Z,1.25
2023-03-11T09:31:01.920Z,1.55
2023-03-11T09:33:48.070Z,1.52
2023-03-11T09:36:34.391Z,1.02
2023-03-11T09:39:20.785Z,1.58
2023-03-11T09:42:22.290Z,0.77
2023-03-11T09:45:20.414Z,0.75
2023-03-11T09:48:09.041Z,0.75
2023-03-11T09:51:08.815Z,1.45
2023-03-11T09:54:19.574Z,1.20
2023-03-11T09:57:06.925Z,1.30
2023-03-11T09:59:52.856Z,1.60
2023-03-11T10:02:38.779Z,1.67
2023-03-11T10:05:29.256Z,1.10
2023-03-11T10:08:33.532Z,1.30
2023-03-11T10:11:31.395Z,1.38
2023-03-11T10:14:17.074Z,2.50
2023-03-11T10:17:27.859Z,1.20
2023-03-11T10:20:19.759Z,2.40
2023-03-11T10:23:16.283Z,0.90
2023-03-11T10:26:16.123Z,0.82
2023-03-11T10:29:08.141Z,1.33
2023-03-11T10:32:15.780Z,1.45
2023-03-11T10:35:16.948Z,0.93
2023-03-11T10:38:21.297Z,2.28
2023-03-11T10:41:37.956Z,1.23
2023-03-11T10:44:37.514Z,1.35
2023-03-11T10:47:27.336Z,0.95
2023-03-11T10:50:21.829Z,1.73
2023-03-11T10:53:15.715Z,1.52
2023-03-11T10:56:01.798Z,1.27
2023-03-11T10:58:50.497Z,0.95
2023-03-11T11:01:36.385Z,1.13
2023-03-11T11:04:48.836Z,0.95
2023-03-11T11:07:41.163Z,1.25
2023-03-11T11:10:28.612Z,1.20
2023-03-11T11:13:14.704Z,0.98
2023-03-11T11:16:03.397Z,0.68
2023-03-11T11:18:52.168Z,0.98
2023-03-11T11:21:41.542Z,1.35
2023-03-11T13:32:46.077Z,2.10
2023-03-11T13:35:52.536Z,2.42
2023-03-11T13:39:01.261Z,1.13
2023-03-11T13:41:47.837Z,2.03
2023-03-11T13:44:39.089Z,1.17
2023-03-11T13:47:25.955Z,1.27
2023-03-11T13:50:34.200Z,1.65
2023-03-11T13:53:26.223Z,3.28
2023-03-11T13:56:44.326Z,1.95
2023-03-11T13:59:35.131Z,2.40
2023-03-11T14:02:23.482Z,2.97
2023-03-11T14:05:26.978Z,1.27
2023-03-11T14:08:24.062Z,1.27
2023-03-11T14:11:12.862Z,1.52
2023-03-11T14:13:58.743Z,2.05
2023-03-11T14:16:45.654Z,2.20
2023-03-11T14:19:34.314Z,2.00
2023-03-11T14:22:37.508Z,2.55
2023-03-11T14:25:32.339Z,1.00
2023-03-11T14:28:21.980Z,1.15
2023-03-11T14:31:08.165Z,3.17
2023-03-11T14:34:04.993Z,2.17
2023-03-11T14:36:57.591Z,2.20
2023-03-11T14:39:46.352Z,3.03
2023-03-11T14:42:55.154Z,3.40
2023-03-11T14:45:49.490Z,2.17
2023-03-11T14:48:39.981Z,2.70
2023-03-11T14:54:55.560Z,1.60
2023-03-11T14:57:46.610Z,1.90
2023-03-11T15:00:39.189Z,2.17
2023-03-11T15:03:31.949Z,1.55
2023-03-11T15:06:20.411Z,1.23
2023-03-11T15:09:25.588Z,1.38
2023-03-11T15:13:07.207Z,1.40
2023-03-11T15:17:13.353Z,1.75
2023-03-11T15:20:49.230Z,3.17
2023-03-11T15:23:49.980Z,1.20
2023-03-11T15:26:40.568Z,2.15
2023-03-11T15:29:27.056Z,1.42
2023-03-11T15:32:31.741Z,1.88
2023-03-11T15:35:19.406Z,0.80
2023-03-11T15:38:21.015Z,2.25
2023-03-11T15:41:10.187Z,2.63
2023-03-11T15:44:00.451Z,2.50
2023-03-11T15:46:46.688Z,2.55
2023-03-11T15:49:34.592Z,2.60
2023-03-11T15:52:22.066Z,1.80
2023-03-11T15:55:08.292Z,2.60
2023-03-11T15:58:00.489Z,1.67
2023-03-11T16:00:56.133Z,2.22
2023-03-11T16:03:41.851Z,1.92
2023-03-11T16:06:28.997Z,1.58
2023-03-11T16:09:16.771Z,2.72
2023-03-11T16:12:02.993Z,1.15
2023-03-11T16:14:49.660Z,2.30
2023-03-11T16:17:48.906Z,1.00
2023-03-11T16:20:55.423Z,1.63
2023-03-11T16:23:51.145Z,1.02
2023-03-11T16:26:37.984Z,2.40
2023-03-11T16:29:24.531Z,1.63
2023-03-11T16:32:11.785Z,1.63
2023-03-11T16:35:06.291Z,2.63
2023-03-11T16:37:56.035Z,1.17
2023-03-11T16:40:41.995Z,2.50
2023-03-11T16:43:30.180Z,1.15
2023-03-11T16:46:19.209Z,1.98
2023-03-11T16:49:07.797Z,1.77
2023-03-11T16:51:55.145Z,1.63
2023-03-11T16:55:09.322Z,1.15
2023-03-11T16:57:57.720Z,3.58
2023-03-11T17:00:44.765Z,6.15
2023-03-11T17:03:40.974Z,2.88
2023-03-11T17:06:28.156Z,1.75
2023-03-11T17:09:19.174Z,1.98
2023-03-11T17:12:07.071Z,2.75
2023-03-11T17:14:54.186Z,2.53
2023-03-11T17:17:39.948Z,2.13
2023-03-11T17:20:25.865Z,3.70
2023-03-11T17:23:14.229Z,3.17
2023-03-11T17:26:01.794Z,4.90
2023-03-11T17:28:48.144Z,4.28
2023-03-11T17:31:34.229Z,3.88
2023-03-11T17:34:19.839Z,1.98
2023-03-11T17:37:05.486Z,2.92
2023-03-11T17:39:51.753Z,3.00
2023-03-11T17:42:39.854Z,3.20
2023-03-11T17:48:11.889Z,2.80
2023-03-11T17:50:57.770Z,1.40
2023-03-11T17:53:45.990Z,2.85
2023-03-11T17:56:36.859Z,1.67
2023-03-11T17:59:22.786Z,1.73
2023-03-11T18:02:13.482Z,2.80
2023-03-11T18:05:01.927Z,2.50
2023-03-11T18:07:49.396Z,4.18
2023-03-11T18:10:36.887Z,3.80
2023-03-11T18:13:22.459Z,3.38
2023-03-11T18:16:20.456Z,2.95
2023-03-11T18:19:06.244Z,1.95
2023-03-11T18:21:51.758Z,2.50
2023-03-11T18:24:39.099Z,3.22
2023-03-11T18:27:25.052Z,1.58
2023-03-11T18:30:11.495Z,2.20
2023-03-11T18:32:57.640Z,3.22
2023-03-11T18:35:43.968Z,3.45
2023-03-11T18:38:30.186Z,4.18
2023-03-11T18:41:16.269Z,4.75
2023-03-11T18:44:01.935Z,3.00
2023-03-11T18:46:47.912Z,3.25
2023-03-11T18:49:33.314Z,2.95
2023-03-11T18:52:19.828Z,2.70
2023-03-11T18:55:07.280Z,1.92
2023-03-11T18:57:53.940Z,3.15
2023-03-11T19:00:40.456Z,4.63
2023-03-11T19:03:27.521Z,4.22
2023-03-11T19:06:13.688Z,4.43
2023-03-11T19:08:59.498Z,3.38
2023-03-11T19:11:51.412Z,5.07
2023-03-11T19:14:45.709Z,5.18
2023-03-11T19:17:34.725Z,4.53
2023-03-11T19:20:20.238Z,4.65
2023-03-11T19:23:06.714Z,5.22
2023-03-11T19:26:02.422Z,3.15
2023-03-11T19:28:49.313Z,4.00
2023-03-11T19:31:38.755Z,4.57
2023-03-11T19:34:28.521Z,5.85
2023-03-11T19:37:17.362Z,5.50
2023-03-11T19:40:07.877Z,4.82
2023-03-11T19:42:54.657Z,4.95
2023-03-11T19:45:43.144Z,7.55
2023-03-11T19:48:33.394Z,7.40
2023-03-11T19:51:21.718Z,4.20
2023-03-11T19:54:11.178Z,4.75
2023-03-11T19:56:57.285Z,5.53
2023-03-11T19:59:44.075Z,6.05
2023-03-11T20:02:30.260Z,4.32
2023-03-11T20:05:16.245Z,6.40
2023-03-11T20:08:02.638Z,5.05
2023-03-11T20:10:50.233Z,5.57
2023-03-11T20:13:36.707Z,5.65
2023-03-11T20:16:23.130Z,6.28
2023-03-11T20:19:09.071Z,5.45
2023-03-11T20:21:55.816Z,5.35
2023-03-11T20:24:43.719Z,5.03
2023-03-11T20:27:29.887Z,4.50
2023-03-11T20:30:16.189Z,4.10
2023-03-11T20:33:01.851Z,2.67
2023-03-11T20:35:48.176Z,4.53
2023-03-11T20:38:33.933Z,3.60
2023-03-11T20:41:24.030Z,4.13
2023-03-11T20:44:12.643Z,4.07
2023-03-11T20:46:58.574Z,2.10
2023-03-11T20:49:45.035Z,4.10
2023-03-11T20:52:36.010Z,3.55
2023-03-11T20:55:22.975Z,3.58
2023-03-11T20:58:10.091Z,4.38
2023-03-11T21:00:56.559Z,3.67
2023-03-11T21:03:43.410Z,4.20
2023-03-11T21:06:37.005Z,4.00
2023-03-11T21:09:23.536Z,4.78
2023-03-11T21:12:09.379Z,5.07
2023-03-11T21:14:56.659Z,4.93
2023-03-11T21:17:42.736Z,5.68
2023-03-11T21:20:29.043Z,5.93
2023-03-11T21:23:14.673Z,5.07
2023-03-11T21:26:01.545Z,4.07
2023-03-11T21:28:47.330Z,4.65
2023-03-11T21:31:33.712Z,5.85
2023-03-11T21:34:19.712Z,5.28
2023-03-11T21:37:06.179Z,5.05
2023-03-11T21:39:52.215Z,5.22
2023-03-11T21:42:38.716Z,4.53
2023-03-11T21:45:24.550Z,5.45
2023-03-11T21:48:14.192Z,6.68
2023-03-11T21:51:00.728Z,3.40
2023-03-11T21:53:48.090Z,5.22
2023-03-11T21:56:35.424Z,4.57
2023-03-11T21:59:25.411Z,4.78
2023-03-11T22:02:16.486Z,3.70
2023-03-11T22:05:02.940Z,5.82
2023-03-11T22:07:48.602Z,4.95
2023-03-11T22:10:34.689Z,5.50
2023-03-11T22:13:20.999Z,4.70
2023-03-11T22:16:07.386Z,4.43
2023-03-11T22:18:53.636Z,4.22
2023-03-11T22:21:39.407Z,4.43
2023-03-11T22:24:24.867Z,4.70
2023-03-11T22:27:10.425Z,4.78
2023-03-11T22:29:56.038Z,5.05
2023-03-11T22:32:42.007Z,4.70
2023-03-11T22:35:27.641Z,5.30
2023-03-11T22:38:12.941Z,6.45
2023-03-11T22:41:00.482Z,5.97
2023-03-11T22:43:47.045Z,5.90
2023-03-11T22:46:32.570Z,6.55
2023-03-11T22:49:18.313Z,6.18
2023-03-11T22:52:03.905Z,5.65
2023-03-11T22:54:49.783Z,5.45
2023-03-11T22:57:38.965Z,5.60
2023-03-11T23:00:25.079Z,4.90
2023-03-11T23:03:11.856Z,7.03
2023-03-11T23:06:02.210Z,7.10
2023-03-11T23:08:48.093Z,6.45
2023-03-11T23:11:33.419Z,5.93
2023-03-11T23:14:21.919Z,7.72
2023-03-11T23:17:09.681Z,9.27
2023-03-11T23:30:17.578Z,5.70
2023-03-11T23:33:03.488Z,5.70
2023-03-11T23:35:49.309Z,10.75
2023-03-11T23:38:35.794Z,11.07
2023-03-11T23:41:23.904Z,8.25
2023-03-11T23:44:09.575Z,6.15
2023-03-11T23:46:55.144Z,5.15
2023-03-11T23:49:41.107Z,5.40
2023-03-11T23:52:26.587Z,6.07
2023-03-11T23:55:12.598Z,7.03
2023-03-11T23:57:58.179Z,6.47
